Time;durP1;ratioP1;P1;durP2;ratioP2;P2;SDS_P1;SDS_P2;PMS_P1;PMS_P2;Temp;Humidity;BMP_temperature;BMP_pressure;BME280_temperature;BME280_humidity;BME280_pressure;Samples;Min_cycle;Max_cycle;Signal;HPM_P1;HPM_P2
2023/01/16 00:02:25;;;;;;;5.43;1.85;;;;;;;7.53;73.53;97931.34;5011062;28;20133;-77
2023/01/16 00:04:52;;;;;;;3.10;1.50;;;;;;;7.54;73.31;97930.38;4993204;28;20106;-77
2023/01/16 00:07:18;;;;;;;7.00;1.48;;;;;;;7.54;73.27;97930.38;5011263;28;20545;-77
2023/01/16 00:09:45;;;;;;;7.35;1.95;;;;;;;7.53;73.22;97926.09;5010607;28;20145;-78
2023/01/16 00:12:11;;;;;;;3.88;1.50;;;;;;;7.53;72.99;97916.47;4993351;28;20517;-77
2023/01/16 00:14:38;;;;;;;4.63;1.38;;;;;;;7.53;73.47;97910.41;5010984;28;20150;-77
2023/01/16 00:17:05;;;;;;;6.90;1.77;;;;;;;7.52;73.07;97903.50;5010479;28;20141;-78
2023/01/16 00:19:33;;;;;;;5.93;1.63;;;;;;;7.52;73.42;97904.31;5015879;28;20060;-78
2023/01/16 00:22:00;;;;;;;5.88;1.77;;;;;;;7.51;73.18;97896.59;4999710;28;20085;-78
2023/01/16 00:24:26;;;;;;;8.57;1.60;;;;;;;7.52;73.00;97890.41;4999695;28;20060;-78
2023/01/16 00:26:53;;;;;;;3.65;1.38;;;;;;;7.50;73.13;97882.66;5016912;28;20482;-77
2023/01/16 00:29:20;;;;;;;4.28;1.58;;;;;;;7.49;72.95;97883.63;5026274;28;20053;-78
2023/01/16 00:31:46;;;;;;;5.80;1.60;;;;;;;7.46;72.41;97880.38;5036660;28;20137;-77
2023/01/16 00:34:13;;;;;;;4.22;1.10;;;;;;;7.42;72.25;97875.38;5018594;28;20107;-77
2023/01/16 00:36:39;;;;;;;3.80;1.17;;;;;;;7.41;72.78;97865.03;5035501;28;20561;-77
2023/01/16 00:39:06;;;;;;;3.40;1.17;;;;;;;7.38;72.69;97868.72;5030032;28;20498;-78
2023/01/16 00:41:33;;;;;;;2.65;1.00;;;;;;;7.37;72.49;97867.03;5036327;28;20413;-78
2023/01/16 00:44:00;;;;;;;2.75;0.75;;;;;;;7.35;72.73;97861.09;5019341;28;20049;-78
2023/01/16 00:46:29;;;;;;;3.58;1.40;;;;;;;7.33;72.63;97862.16;5020867;28;20084;-78
2023/01/16 00:48:56;;;;;;;3.70;1.02;;;;;;;7.31;72.69;97854.41;5016920;28;20056;-77
2023/01/16 00:51:23;;;;;;;5.03;1.33;;;;;;;7.30;73.18;97850.94;5016813;28;20116;-76
2023/01/16 00:56:34;;;;;;;2.83;1.38;;;;;;;7.27;73.21;97839.88;5065292;22;20107;-80
2023/01/16 00:59:00;;;;;;;5.68;1.30;;;;;;;7.26;73.16;97830.38;5035639;28;20534;-80
2023/01/16 01:01:27;;;;;;;4.10;1.40;;;;;;;7.21;72.89;97833.31;5035602;28;20084;-79
2023/01/16 01:03:53;;;;;;;6.65;1.63;;;;;;;7.21;73.07;97832.50;5035432;28;20059;-79
2023/01/16 01:06:19;;;;;;;7.25;1.38;;;;;;;7.18;73.11;97828.31;5035191;28;20094;-80
2023/01/16 01:08:46;;;;;;;4.25;1.17;;;;;;;7.15;73.24;97818.91;5035065;28;20127;-80
2023/01/16 01:11:14;;;;;;;4.90;1.23;;;;;;;7.12;72.97;97813.06;5017721;28;20049;-79
2023/01/16 01:13:41;;;;;;;3.85;1.40;;;;;;;7.11;73.12;97809.59;5035386;28;20407;-80
2023/01/16 01:16:09;;;;;;;2.97;1.10;;;;;;;7.09;73.60;97803.66;5034896;28;20444;-79
2023/01/16 01:18:36;;;;;;;6.55;1.63;;;;;;;7.06;73.43;97803.88;5035186;28;20053;-79
2023/01/16 01:21:03;;;;;;;5.85;1.15;;;;;;;7.04;73.65;97804.00;5035307;28;20523;-79
2023/01/16 01:23:29;;;;;;;3.35;1.30;;;;;;;7.01;74.10;97796.41;5035386;28;20056;-80
2023/01/16 01:25:56;;;;;;;4.00;1.40;;;;;;;7.00;73.81;97792.09;5035221;28;20141;-79
2023/01/16 01:28:22;;;;;;;3.05;1.33;;;;;;;6.98;73.85;97780.91;5035159;28;20061;-79
2023/01/16 01:30:49;;;;;;;2.55;1.00;;;;;;;6.96;74.11;97777.59;5032193;28;20480;-79
2023/01/16 01:33:15;;;;;;;6.57;1.20;;;;;;;6.95;74.33;97775.09;5032113;28;20049;-79
2023/01/16 01:35:41;;;;;;;3.03;1.15;;;;;;;6.91;74.16;97770.06;5031924;28;20499;-79
2023/01/16 01:38:08;;;;;;;7.72;1.33;;;;;;;6.89;73.86;97763.28;5032060;28;20076;-79
2023/01/16 01:40:34;;;;;;;3.83;1.33;;;;;;;6.87;74.13;97767.78;5032226;28;20115;-79
2023/01/16 01:43:00;;;;;;;6.38;1.60;;;;;;;6.85;74.53;97759.25;5032123;28;20057;-79
2023/01/16 01:45:29;;;;;;;6.57;1.60;;;;;;;6.82;74.50;97743.75;5031889;28;20087;-79
2023/01/16 01:48:04;;;;;;;4.07;1.80;;;;;;;6.79;73.99;97747.44;5031777;28;20510;-79
2023/01/16 01:50:42;;;;;;;3.78;1.45;;;;;;;6.77;73.63;97744.13;5032260;28;20119;-79
2023/01/16 01:53:18;;;;;;;3.72;1.40;;;;;;;6.74;73.85;97749.56;5032114;28;20058;-79
2023/01/16 01:55:47;;;;;;;3.53;1.25;;;;;;;6.73;74.38;97734.84;5031917;28;20062;-79
2023/01/16 01:58:21;;;;;;;5.15;1.35;;;;;;;6.69;74.34;97722.94;5031789;28;20084;-79
2023/01/16 02:00:50;;;;;;;2.08;0.93;;;;;;;6.69;74.79;97728.16;5032385;28;20053;-78
2023/01/16 02:03:27;;;;;;;2.45;1.10;;;;;;;6.65;73.61;97723.16;5031596;28;20148;-78
2023/01/16 02:05:56;;;;;;;1.42;0.82;;;;;;;6.63;74.40;97709.38;5031720;28;20050;-78
2023/01/16 02:08:29;;;;;;;3.45;1.17;;;;;;;6.60;73.94;97714.81;5031559;28;20061;-79
2023/01/16 02:11:01;;;;;;;2.25;0.85;;;;;;;6.59;73.95;97713.16;5031573;28;20057;-78
2023/01/16 02:13:28;;;;;;;4.85;1.15;;;;;;;6.58;74.57;97708.84;5031920;28;20060;-79
2023/01/16 02:21:29;;;;;;;3.60;1.20;;;;;;;6.54;75.13;97694.34;5031594;28;20111;-79
2023/01/16 02:24:18;;;;;;;2.55;1.13;;;;;;;6.48;73.84;97684.34;5030980;28;20503;-79
2023/01/16 02:27:09;;;;;;;3.38;1.48;;;;;;;6.49;74.06;97675.56;5031075;28;20053;-79
2023/01/16 02:29:46;;;;;;;2.38;1.35;;;;;;;6.48;74.53;97668.66;5031346;28;20053;-79
2023/01/16 02:32:26;;;;;;;3.92;1.70;;;;;;;6.48;74.42;97663.44;5013670;28;20053;-79
2023/01/16 02:35:11;;;;;;;1.88;1.13;;;;;;;6.50;75.42;97654.53;5030921;28;20057;-79
2023/01/16 02:37:54;;;;;;;4.25;1.50;;;;;;;6.48;75.11;97651.22;5031144;28;20053;-79
2023/01/16 02:40:47;;;;;;;2.72;1.38;;;;;;;6.46;74.40;97649.66;5013322;28;20165;-79
2023/01/16 02:43:32;;;;;;;2.17;1.40;;;;;;;6.46;74.46;97645.25;5030642;28;20053;-79
2023/01/16 02:46:17;;;;;;;2.83;1.30;;;;;;;6.48;75.51;97646.00;5030845;28;20053;-79
2023/01/16 02:48:49;;;;;;;3.50;1.50;;;;;;;6.42;74.38;97629.94;5013636;28;20065;-79
2023/01/16 02:51:33;;;;;;;4.55;1.65;;;;;;;6.38;74.48;97630.16;5031065;28;20135;-79
2023/01/16 02:54:11;;;;;;;5.32;1.83;;;;;;;6.36;74.79;97618.16;5031017;28;20054;-79
2023/01/16 02:56:45;;;;;;;6.75;1.77;;;;;;;6.34;74.97;97610.44;5030406;28;20486;-79
2023/01/16 02:59:14;;;;;;;2.55;1.67;;;;;;;6.34;75.37;97606.97;5030696;28;20056;-79
2023/01/16 03:01:40;;;;;;;2.70;1.50;;;;;;;6.33;75.55;97608.75;5030825;28;20065;-79
2023/01/16 03:04:41;;;;;;;2.03;1.35;;;;;;;6.29;73.71;97609.09;5013293;28;20057;-79
2023/01/16 03:07:32;;;;;;;2.60;1.30;;;;;;;6.29;74.68;97607.31;5030301;28;20054;-79
2023/01/16 03:10:12;;;;;;;2.50;1.30;;;;;;;6.25;74.31;97601.47;5030817;28;20057;-79
2023/01/16 03:13:04;;;;;;;4.32;1.20;;;;;;;6.25;74.47;97600.66;5013130;28;20123;-79
2023/01/16 03:15:45;;;;;;;4.68;1.33;;;;;;;6.26;74.40;97597.09;5030134;28;20100;-79
2023/01/16 03:18:41;;;;;;;2.20;0.80;;;;;;;6.24;74.38;97586.75;5030549;28;20093;-78
2023/01/16 03:21:21;;;;;;;3.00;0.98;;;;;;;6.28;75.90;97578.69;5030230;28;20050;-79
2023/01/16 03:23:58;;;;;;;2.58;1.00;;;;;;;6.26;75.12;97586.66;5030279;28;20053;-79
2023/01/16 03:26:37;;;;;;;5.22;1.35;;;;;;;6.25;74.77;97595.44;5030268;28;20069;-79
2023/01/16 03:29:40;;;;;;;2.05;1.30;;;;;;;6.23;74.17;97579.03;5030399;28;20062;-79
2023/01/16 03:32:17;;;;;;;6.45;1.98;;;;;;;6.28;75.86;97576.09;5010057;28;20058;-79
2023/01/16 03:35:13;;;;;;;2.53;1.17;;;;;;;6.23;74.96;97565.97;5030289;28;20065;-79
2023/01/16 03:37:55;;;;;;;2.33;1.08;;;;;;;6.25;75.52;97564.09;5021201;28;20127;-79
2023/01/16 03:40:29;;;;;;;5.82;1.73;;;;;;;6.25;75.60;97562.28;5030028;28;20084;-79
2023/01/16 03:43:30;;;;;;;5.25;1.58;;;;;;;6.23;75.17;97545.06;5029810;28;20519;-79
2023/01/16 03:46:07;;;;;;;5.72;1.90;;;;;;;6.25;75.54;97543.19;5029585;28;20507;-80
2023/01/16 03:48:53;;;;;;;5.75;1.95;;;;;;;6.26;76.49;97539.63;5029734;28;20068;-79
2023/01/16 03:51:24;;;;;;;5.78;1.90;;;;;;;6.23;76.08;97535.47;5029845;28;20499;-79
2023/01/16 03:54:00;;;;;;;4.57;1.63;;;;;;;6.22;75.88;97532.97;5029405;28;20061;-79
2023/01/16 03:56:35;;;;;;;1.98;1.77;;;;;;;6.21;76.01;97532.13;5029608;28;20111;-79
2023/01/16 03:59:02;;;;;;;4.90;1.70;;;;;;;6.22;76.73;97531.19;5029621;28;20100;-79
2023/01/16 04:01:41;;;;;;;7.13;2.13;;;;;;;6.19;76.25;97527.94;5029617;28;20096;-79
2023/01/16 04:04:35;;;;;;;8.00;2.08;;;;;;;6.17;75.72;97535.09;5012108;28;20060;-79
2023/01/16 04:07:12;;;;;;;9.15;2.70;;;;;;;6.16;75.83;97528.22;5011865;28;20091;-79
2023/01/16 04:09:45;;;;;;;4.45;2.00;;;;;;;6.15;75.85;97519.53;5029629;28;20488;-78
2023/01/16 04:12:17;;;;;;;2.63;1.95;;;;;;;6.16;76.13;97522.97;5029825;28;20053;-79
2023/01/16 04:14:46;;;;;;;5.50;1.97;;;;;;;6.13;76.49;97517.03;5029610;28;20491;-79
2023/01/16 04:17:12;;;;;;;5.15;2.33;;;;;;;6.12;76.28;97515.38;5029706;28;20097;-79
2023/01/16 04:19:39;;;;;;;4.20;1.92;;;;;;;6.10;76.54;97514.63;5011907;28;20133;-79
2023/01/16 04:22:07;;;;;;;4.38;2.03;;;;;;;6.10;76.63;97508.59;5029914;28;20480;-79
2023/01/16 04:24:35;;;;;;;4.60;1.98;;;;;;;6.10;76.46;97509.41;5029249;28;20060;-79
2023/01/16 04:27:01;;;;;;;4.10;1.73;;;;;;;6.11;76.85;97505.88;5029248;28;20581;-79
2023/01/16 04:29:28;;;;;;;3.38;2.10;;;;;;;6.08;76.04;97494.81;5029518;28;20103;-79
2023/01/16 04:31:54;;;;;;;7.95;2.03;;;;;;;6.07;76.13;97493.16;5029442;28;20468;-79
2023/01/16 04:34:20;;;;;;;5.97;1.95;;;;;;;6.05;75.74;97485.41;5029382;28;20050;-79
2023/01/16 04:36:47;;;;;;;3.78;1.65;;;;;;;6.01;75.72;97473.50;5026706;28;20061;-78
2023/01/16 04:39:13;;;;;;;5.10;2.10;;;;;;;5.98;75.51;97479.78;5000898;28;20425;-79
2023/01/16 04:41:40;;;;;;;4.60;2.05;;;;;;;5.94;75.94;97474.94;5024404;28;20096;-79
2023/01/16 04:44:09;;;;;;;4.72;1.95;;;;;;;5.90;75.96;97466.47;5011232;28;20054;-79
2023/01/16 04:46:37;;;;;;;3.88;1.95;;;;;;;5.89;76.13;97461.38;5020354;28;20081;-79
2023/01/16 04:49:05;;;;;;;9.35;2.17;;;;;;;5.84;76.39;97459.13;5028857;28;20068;-79
2023/01/16 04:51:31;;;;;;;4.07;2.00;;;;;;;5.83;76.33;97449.63;5029119;28;20049;-79
2023/01/16 04:53:58;;;;;;;6.25;1.83;;;;;;;5.83;76.37;97444.41;5029271;28;20061;-79
2023/01/16 04:56:24;;;;;;;6.38;1.83;;;;;;;5.80;76.30;97445.44;5029158;28;20115;-79
2023/01/16 04:58:52;;;;;;;4.38;1.80;;;;;;;5.81;76.24;97444.50;5029137;28;20569;-79
2023/01/16 05:01:19;;;;;;;5.68;1.63;;;;;;;5.81;76.39;97430.63;5029132;28;20053;-79
2023/01/16 05:03:45;;;;;;;11.43;2.40;;;;;;;5.79;76.40;97428.13;5011543;28;20083;-79
2023/01/16 05:06:12;;;;;;;3.72;1.67;;;;;;;5.78;76.73;97423.00;5030688;28;20115;-79
2023/01/16 05:08:38;;;;;;;3.13;1.48;;;;;;;5.77;76.73;97422.19;5032697;28;20459;-79
2023/01/16 05:11:05;;;;;;;4.75;1.63;;;;;;;5.79;76.96;97414.25;5029675;28;20049;-78
2023/01/16 05:13:37;;;;;;;5.93;1.65;;;;;;;5.79;76.43;97412.47;5013708;28;20057;-79
2023/01/16 05:16:04;;;;;;;5.88;1.50;;;;;;;5.84;77.23;97405.09;5032400;28;20049;-79
2023/01/16 05:18:30;;;;;;;7.50;1.77;;;;;;;5.87;77.37;97404.06;5014991;28;20057;-79
2023/01/16 05:20:57;;;;;;;3.08;1.30;;;;;;;5.91;77.06;97397.63;5032322;28;20493;-79
2023/01/16 05:23:23;;;;;;;8.52;1.67;;;;;;;5.92;77.28;97382.81;5032740;28;20053;-79
2023/01/16 05:25:50;;;;;;;4.25;1.52;;;;;;;5.95;77.09;97385.19;5014661;28;20065;-80
2023/01/16 05:28:16;;;;;;;4.28;1.42;;;;;;;5.98;77.19;97384.97;5032338;28;20695;-79
2023/01/16 05:30:42;;;;;;;4.28;1.23;;;;;;;5.99;76.96;97379.59;5031043;28;20080;-79
2023/01/16 05:33:09;;;;;;;4.15;1.55;;;;;;;6.02;76.68;97375.94;5031836;28;20053;-80
2023/01/16 05:35:35;;;;;;;5.10;1.77;;;;;;;6.02;76.71;97365.47;5031880;28;20085;-79
2023/01/16 05:38:01;;;;;;;3.25;1.60;;;;;;;6.01;76.16;97353.38;5032199;28;20045;-79
2023/01/16 05:40:28;;;;;;;2.17;1.38;;;;;;;6.04;76.19;97353.19;5032036;28;20049;-79
2023/01/16 05:42:54;;;;;;;2.60;1.30;;;;;;;6.04;76.19;97347.13;5032279;28;20057;-79
2023/01/16 05:45:21;;;;;;;3.20;1.40;;;;;;;6.04;75.80;97344.50;5031933;28;20058;-79
2023/01/16 05:47:47;;;;;;;4.43;1.17;;;;;;;6.03;75.78;97341.09;5031959;28;20107;-79
2023/01/16 05:50:14;;;;;;;5.82;1.30;;;;;;;6.00;75.74;97342.13;5032301;28;20049;-79
2023/01/16 05:52:40;;;;;;;3.03;1.30;;;;;;;5.98;75.72;97328.34;5032138;28;20107;-79
2023/01/16 05:55:07;;;;;;;5.25;1.10;;;;;;;5.97;75.82;97312.78;5031935;28;20065;-78
2023/01/16 05:57:34;;;;;;;1.83;1.10;;;;;;;5.95;75.80;97317.31;5031797;28;20511;-79
2023/01/16 06:00:00;;;;;;;3.65;1.33;;;;;;;5.95;75.66;97312.09;5030280;28;20045;-79
2023/01/16 06:02:26;;;;;;;4.25;1.10;;;;;;;5.93;75.83;97308.75;5031246;28;20431;-79
2023/01/16 06:04:53;;;;;;;2.15;1.20;;;;;;;5.92;75.65;97301.88;5023579;28;20060;-79
2023/01/16 06:07:19;;;;;;;5.80;1.17;;;;;;;5.90;75.83;97299.38;5031609;28;20519;-78
2023/01/16 06:09:45;;;;;;;1.30;0.80;;;;;;;5.89;75.62;97294.25;5031744;28;20103;-79
2023/01/16 06:12:17;;;;;;;1.33;0.90;;;;;;;5.86;75.48;97282.28;5031732;28;20092;-79
2023/01/16 06:14:43;;;;;;;2.13;0.90;;;;;;;5.85;75.62;97276.25;5031512;28;20087;-80
2023/01/16 06:17:14;;;;;;;2.10;1.30;;;;;;;5.85;75.76;97276.25;5031154;28;20064;-80
2023/01/16 06:19:41;;;;;;;7.63;1.08;;;;;;;5.83;75.65;97259.84;5031598;28;20061;-79
2023/01/16 06:22:08;;;;;;;4.28;0.90;;;;;;;5.81;75.39;97264.38;5012306;28;20057;-80
2023/01/16 06:24:35;;;;;;;3.45;0.90;;;;;;;5.82;75.54;97265.19;5004731;28;20068;-79
2023/01/16 06:27:01;;;;;;;1.40;0.90;;;;;;;5.79;76.00;97253.22;5031081;28;20061;-80
2023/01/16 06:29:27;;;;;;;3.08;0.80;;;;;;;5.79;76.01;97257.63;5013697;28;20049;-80
2023/01/16 06:31:56;;;;;;;2.58;0.80;;;;;;;5.77;75.56;97246.47;5031674;28;20476;-79
2023/01/16 06:34:22;;;;;;;4.32;1.33;;;;;;;5.78;76.01;97248.09;5031206;28;20061;-80
2023/01/16 06:36:49;;;;;;;2.15;0.68;;;;;;;5.77;75.99;97243.84;5031027;28;20065;-79
2023/01/16 06:39:17;;;;;;;1.58;0.90;;;;;;;5.76;75.66;97242.19;5028802;28;20049;-79
2023/01/16 06:41:44;;;;;;;1.02;0.70;;;;;;;5.77;76.22;97238.63;5030813;28;20057;-80
2023/01/16 06:44:10;;;;;;;2.95;0.75;;;;;;;5.75;75.84;97223.06;5012195;28;20072;-80
2023/01/16 06:46:37;;;;;;;1.00;0.70;;;;;;;5.74;75.82;97222.28;5029087;28;20057;-79
2023/01/16 06:49:04;;;;;;;1.95;0.80;;;;;;;5.75;75.88;97225.69;5029555;28;20053;-79
2023/01/16 06:51:30;;;;;;;2.28;1.02;;;;;;;5.75;75.95;97215.25;5027851;28;20053;-80
2023/01/16 06:53:57;;;;;;;1.85;0.75;;;;;;;5.74;75.82;97213.59;5030669;28;20057;-79
2023/01/16 06:56:24;;;;;;;2.88;0.90;;;;;;;5.73;76.05;97204.91;5012202;22;20060;-77
2023/01/16 06:58:50;;;;;;;2.72;1.00;;;;;;;5.74;76.07;97205.75;5031468;28;20057;-77
2023/01/16 07:01:17;;;;;;;2.33;0.80;;;;;;;5.73;75.95;97191.06;5031948;28;20060;-78
2023/01/16 07:03:44;;;;;;;3.13;0.80;;;;;;;5.73;75.90;97185.84;5031821;28;20054;-78
2023/01/16 07:06:12;;;;;;;2.33;0.88;;;;;;;5.72;76.02;97173.75;5031865;28;20230;-77
2023/01/16 07:08:39;;;;;;;3.10;0.90;;;;;;;5.71;76.08;97169.44;5013840;28;20068;-77
2023/01/16 07:11:06;;;;;;;1.50;0.70;;;;;;;5.73;76.22;97178.00;5014014;28;20068;-78
2023/01/16 07:13:33;;;;;;;3.25;0.88;;;;;;;5.71;76.16;97162.47;5031498;28;20104;-78
2023/01/16 07:24:21;;;;;;;1.38;0.70;;;;;;;5.74;76.52;97128.31;5030116;28;20137;-80
2023/01/16 07:26:52;;;;;;;2.67;0.93;;;;;;;5.75;76.90;97121.28;5007781;28;20057;-79
2023/01/16 07:29:19;;;;;;;4.47;0.85;;;;;;;5.79;76.87;97114.06;5027352;28;20050;-78
2023/01/16 07:31:46;;;;;;;2.47;0.70;;;;;;;5.82;77.20;97116.41;5031140;28;20148;-80
2023/01/16 07:34:13;;;;;;;1.00;0.70;;;;;;;5.85;77.46;97116.16;5031077;28;20077;-79
2023/01/16 07:36:39;;;;;;;1.10;0.70;;;;;;;5.86;77.26;97105.59;5030997;28;20390;-79
2023/01/16 07:39:06;;;;;;;1.73;0.60;;;;;;;5.90;77.46;97100.94;5030954;28;20512;-79
2023/01/16 07:41:32;;;;;;;1.23;0.68;;;;;;;5.94;77.26;97091.09;5030727;28;20141;-79
2023/01/16 07:43:59;;;;;;;4.60;1.10;;;;;;;5.97;77.33;97088.22;5030342;28;20093;-79
2023/01/16 07:46:25;;;;;;;2.55;1.10;;;;;;;5.99;77.31;97088.94;5030760;28;20096;-79
2023/01/16 07:48:53;;;;;;;4.13;0.95;;;;;;;6.03;77.26;97076.44;5030576;28;20060;-80
2023/01/16 07:51:20;;;;;;;2.58;0.82;;;;;;;6.05;77.18;97078.00;5030467;28;20143;-80
2023/01/16 07:53:46;;;;;;;1.35;0.80;;;;;;;6.08;77.20;97077.78;5031019;28;20176;-79
2023/01/16 07:56:13;;;;;;;3.50;0.98;;;;;;;6.11;77.37;97076.69;5030371;28;20053;-79
2023/01/16 07:58:41;;;;;;;2.22;1.00;;;;;;;6.13;76.93;97074.75;5030602;28;20505;-79
2023/01/16 08:01:08;;;;;;;4.57;1.10;;;;;;;6.15;77.13;97057.19;5030574;28;20049;-80
2023/01/16 08:03:34;;;;;;;1.35;0.93;;;;;;;6.17;77.21;97055.28;5030862;28;20144;-79
2023/01/16 08:06:02;;;;;;;3.38;0.90;;;;;;;6.20;77.21;97054.22;5030378;28;20140;-79
2023/01/16 08:08:29;;;;;;;4.70;1.20;;;;;;;6.21;77.16;97043.63;5013234;28;20072;-80
2023/01/16 08:10:57;;;;;;;1.80;1.00;;;;;;;6.24;77.12;97039.91;5013446;28;20294;-80
2023/01/16 08:13:25;;;;;;;3.50;1.33;;;;;;;6.27;77.21;97033.63;5030618;28;20144;-78
2023/01/16 08:15:52;;;;;;;2.17;0.90;;;;;;;6.29;77.38;97031.72;5030218;28;20061;-79
2023/01/16 08:18:19;;;;;;;3.45;1.13;;;;;;;6.30;77.49;97031.59;5030544;28;20468;-79
2023/01/16 08:20:46;;;;;;;4.20;1.08;;;;;;;6.34;77.39;97017.31;5030351;28;20068;-79
2023/01/16 08:23:13;;;;;;;2.28;0.70;;;;;;;6.37;77.33;97016.22;5030442;28;20057;-80
2023/01/16 08:25:39;;;;;;;3.80;1.08;;;;;;;6.39;77.60;97007.28;5030825;28;20068;-80
2023/01/16 08:28:06;;;;;;;4.10;0.98;;;;;;;6.42;77.32;97002.78;5030031;28;20477;-79
2023/01/16 08:30:32;;;;;;;2.97;1.00;;;;;;;6.46;77.33;96988.47;5029781;28;20140;-80
2023/01/16 08:33:01;;;;;;;4.22;0.93;;;;;;;6.48;77.28;96979.56;5030057;28;20046;-80
2023/01/16 08:35:28;;;;;;;1.73;0.90;;;;;;;6.51;77.50;96974.06;5030452;28;20132;-79
2023/01/16 08:37:55;;;;;;;1.58;0.70;;;;;;;6.55;77.42;96979.88;5030007;28;20046;-80
2023/01/16 08:40:21;;;;;;;1.38;0.95;;;;;;;6.57;77.08;96958.81;5032844;28;20097;-79
2023/01/16 08:51:21;;;;;;;1.73;0.80;;;;;;;6.65;75.85;96932.84;5034121;28;20421;-80
2023/01/16 08:53:49;;;;;;;1.65;0.80;;;;;;;6.69;77.14;96933.44;5034550;28;20059;-80
2023/01/16 08:56:16;;;;;;;1.95;0.68;;;;;;;6.70;77.17;96932.47;5034173;28;20054;-79
2023/01/16 08:58:42;;;;;;;1.77;0.95;;;;;;;6.72;76.88;96925.28;5033900;28;20059;-79
2023/01/16 09:01:09;;;;;;;3.05;1.15;;;;;;;6.72;77.21;96913.06;5033947;28;20088;-80
2023/01/16 09:03:36;;;;;;;1.80;0.90;;;;;;;6.74;77.10;96913.78;5033799;28;20505;-80
2023/01/16 09:06:02;;;;;;;1.75;0.60;;;;;;;6.77;77.14;96910.06;5033861;28;20510;-79
2023/01/16 09:08:29;;;;;;;4.90;1.23;;;;;;;6.80;76.91;96911.56;5033862;28;20100;-79
2023/01/16 09:13:49;;;;;;;2.28;0.88;;;;;;;6.82;76.98;96886.94;5033733;28;20049;-79
2023/01/16 09:16:21;;;;;;;1.65;0.80;;;;;;;6.83;76.47;96883.38;5033614;28;20352;-79
2023/01/16 09:18:49;;;;;;;1.23;0.60;;;;;;;6.85;76.74;96881.47;5015798;28;20509;-79
2023/01/16 09:21:18;;;;;;;3.33;0.90;;;;;;;6.85;76.73;96876.22;5033824;28;20060;-79
2023/01/16 09:23:45;;;;;;;1.75;0.90;;;;;;;6.87;76.87;96863.81;5033491;28;20065;-80
2023/01/16 09:26:12;;;;;;;1.98;1.00;;;;;;;6.88;76.84;96852.41;5033308;28;20489;-80
2023/01/16 09:28:39;;;;;;;1.98;0.88;;;;;;;6.88;76.62;96844.56;5033153;28;20484;-79
2023/01/16 09:31:05;;;;;;;3.38;1.30;;;;;;;6.89;76.63;96840.16;5033308;28;20088;-78
2023/01/16 09:33:32;;;;;;;2.30;0.80;;;;;;;6.89;76.65;96843.59;5033426;28;20053;-80
2023/01/16 09:35:58;;;;;;;2.33;0.90;;;;;;;6.90;76.70;96829.56;5033363;28;20061;-79
2023/01/16 09:38:27;;;;;;;2.28;1.30;;;;;;;6.90;76.80;96816.50;5033403;28;20064;-79
2023/01/16 09:40:56;;;;;;;3.10;1.10;;;;;;;6.90;75.95;96810.44;5033342;28;20053;-80
2023/01/16 09:43:46;;;;;;;3.17;1.20;;;;;;;6.89;75.04;96811.41;5033025;28;20060;-80
2023/01/16 09:46:27;;;;;;;1.27;1.10;;;;;;;6.89;75.18;96808.78;5033133;28;20061;-80
2023/01/16 09:48:58;;;;;;;2.42;1.02;;;;;;;6.92;76.68;96803.28;5033228;28;20569;-80
2023/01/16 09:51:32;;;;;;;4.13;1.13;;;;;;;6.93;76.59;96793.63;5032355;28;20053;-80
2023/01/16 09:59:47;;;;;;;1.23;0.70;;;;;;;6.90;75.69;96785.13;5032909;28;20144;-80
2023/01/16 10:02:33;;;;;;;3.47;1.00;;;;;;;6.88;75.03;96781.81;5032655;28;20045;-79
2023/01/16 10:05:04;;;;;;;3.70;1.30;;;;;;;6.89;76.00;96770.38;5032690;28;20081;-79
2023/01/16 10:07:47;;;;;;;3.42;1.10;;;;;;;6.87;75.11;96776.72;5032733;28;20164;-79
2023/01/16 10:10:41;;;;;;;3.83;0.95;;;;;;;6.85;74.92;96761.19;5014918;28;20494;-79
2023/01/16 10:13:26;;;;;;;1.52;0.93;;;;;;;6.87;76.47;96738.31;5032649;28;20506;-80
2023/01/16 10:16:15;;;;;;;2.20;0.90;;;;;;;6.83;75.09;96738.72;5032427;28;20133;-80
2023/01/16 10:18:56;;;;;;;2.88;0.90;;;;;;;6.83;75.53;96729.09;5032496;28;20103;-78
2023/01/16 10:21:34;;;;;;;2.28;1.05;;;;;;;6.85;76.68;96726.34;5032406;28;20065;-79
2023/01/16 10:24:02;;;;;;;4.22;0.95;;;;;;;6.84;76.87;96709.84;5032502;28;20100;-79
2023/01/16 10:26:36;;;;;;;5.15;1.20;;;;;;;6.83;76.88;96707.34;5032235;28;20049;-80
2023/01/16 10:29:32;;;;;;;2.15;1.10;;;;;;;6.82;75.48;96700.47;5032318;28;20064;-79
2023/01/16 10:32:03;;;;;;;2.85;1.17;;;;;;;6.84;76.96;96694.16;5032203;28;20484;-80
2023/01/16 10:34:39;;;;;;;3.55;1.13;;;;;;;6.82;75.82;96685.63;5032401;28;20061;-79
2023/01/16 10:37:07;;;;;;;3.03;1.38;;;;;;;6.85;77.02;96687.13;5032073;28;20140;-80
2023/01/16 10:39:37;;;;;;;4.53;1.50;;;;;;;6.84;76.47;96668.00;5032106;28;20564;-79
2023/01/16 10:50:31;;;;;;;2.17;1.52;;;;;;;6.86;77.15;96642.56;5032002;28;20435;-79
2023/01/16 10:53:09;;;;;;;4.22;1.55;;;;;;;6.85;76.41;96638.28;5031988;28;20461;-80
2023/01/16 10:55:39;;;;;;;4.07;1.30;;;;;;;6.87;76.81;96631.13;5031333;28;20053;-79
2023/01/16 10:58:44;;;;;;;3.25;1.25;;;;;;;6.85;76.22;96620.00;5031674;28;20088;-78
2023/01/16 11:01:17;;;;;;;2.78;1.70;;;;;;;6.92;77.00;96615.03;5031789;28;20089;-79
2023/01/16 11:03:47;;;;;;;5.53;1.70;;;;;;;6.93;77.02;96610.59;5031896;28;20123;-79
2023/01/16 11:06:19;;;;;;;3.13;1.65;;;;;;;6.95;77.00;96608.69;5031581;28;20144;-79
2023/01/16 11:08:54;;;;;;;4.38;1.55;;;;;;;6.94;76.52;96609.63;5014118;28;20103;-79
2023/01/16 11:20:19;;;;;;;3.25;1.60;;;;;;;7.02;77.38;96573.97;5032079;28;20057;-79
2023/01/16 11:22:58;;;;;;;3.60;1.75;;;;;;;7.02;76.84;96584.41;5031279;28;20053;-79
2023/01/16 11:25:27;;;;;;;3.35;1.75;;;;;;;7.08;77.79;96564.72;5031331;28;20464;-79
2023/01/16 11:27:57;;;;;;;2.78;1.48;;;;;;;7.12;78.19;96554.78;5031065;28;20053;-79
2023/01/16 11:30:38;;;;;;;3.53;1.80;;;;;;;7.12;77.01;96553.00;5031505;28;20049;-79
2023/01/16 11:33:11;;;;;;;4.30;1.70;;;;;;;7.20;78.12;96551.44;5031209;28;20502;-80
2023/01/16 11:35:38;;;;;;;;;;;;;;;7.22;76.32;96537.22;5031541;28;20144;-79
2023/01/16 11:38:06;;;;;;;4.63;1.10;;;;;;;7.28;77.48;96543.66;5031293;28;19960;-79
2023/01/16 11:40:43;;;;;;;4.05;1.10;;;;;;;7.27;77.00;96534.19;5013649;28;20095;-80
2023/01/16 11:46:11;;;;;;;4.15;1.48;;;;;;;7.28;76.92;96518.34;5030922;28;20132;-80
2023/01/16 11:48:48;;;;;;;3.88;1.30;;;;;;;7.29;76.44;96506.91;5013423;28;20061;-79
2023/01/16 11:51:21;;;;;;;3.47;1.23;;;;;;;7.30;77.31;96518.19;5031045;28;20061;-78
2023/01/16 11:53:50;;;;;;;2.72;1.50;;;;;;;7.32;77.27;96507.59;5013298;28;20140;-79
2023/01/16 11:56:44;;;;;;;1.92;1.05;;;;;;;7.27;75.86;96513.25;5030606;28;20468;-78
2023/01/16 11:59:18;;;;;;;1.45;0.90;;;;;;;7.28;75.87;96501.81;5030748;28;20113;-79
2023/01/16 12:04:41;;;;;;;1.45;1.08;;;;;;;7.28;76.83;96489.56;5030572;28;20057;-79
2023/01/16 12:07:36;;;;;;;1.80;0.90;;;;;;;7.24;75.23;96479.53;5030476;28;20127;-80
2023/01/16 12:10:21;;;;;;;2.05;0.82;;;;;;;7.24;75.46;96471.69;5030898;28;20506;-80
2023/01/16 12:16:07;;;;;;;1.42;0.60;;;;;;;7.17;75.67;96472.28;5030306;28;20481;-79
2023/01/16 12:18:39;;;;;;;2.63;0.90;;;;;;;7.16;76.37;96454.97;5030437;28;20100;-79
2023/01/16 12:21:19;;;;;;;0.57;0.57;;;;;;;7.12;75.21;96452.78;5030440;28;20053;-80
2023/01/16 12:24:13;;;;;;;1.95;0.70;;;;;;;7.12;75.90;96451.00;5030295;28;20156;-78
2023/01/16 12:27:15;;;;;;;0.88;0.70;;;;;;;7.08;75.47;96439.19;5030045;28;20067;-79
2023/01/16 12:29:59;;;;;;;2.10;0.60;;;;;;;7.10;77.13;96423.34;5030360;28;20096;-79
2023/01/16 12:32:26;;;;;;;0.77;0.60;;;;;;;7.09;77.12;96419.91;5030582;28;20104;-80
2023/01/16 12:35:19;;;;;;;0.50;0.47;;;;;;;7.04;76.43;96416.91;5030240;28;20422;-79
2023/01/16 12:38:12;;;;;;;1.25;0.73;;;;;;;7.05;75.70;96413.31;5030549;28;20053;-79
2023/01/16 12:43:17;;;;;;;0.40;0.40;;;;;;;7.08;76.04;96404.34;5021283;28;20058;-79
2023/01/16 12:44:03;;;;;;;0.70;0.35;;;;;;;7.10;76.74;96398.00;5030245;28;20147;-80
2023/01/16 12:46:56;;;;;;;1.65;0.65;;;;;;;7.11;76.21;96391.78;5030110;28;20413;-79
2023/01/16 12:49:38;;;;;;;;;;;;;;;7.16;75.99;96383.50;5030758;28;20064;-80
2023/01/16 12:52:41;;;;;;;0.77;0.30;;;;;;;7.20;76.38;96373.56;5030501;28;19929;-79
2023/01/16 12:58:11;;;;;;;1.02;0.50;;;;;;;7.24;77.04;96360.03;4976627;22;20081;-78
2023/01/16 13:00:44;;;;;;;1.13;0.60;;;;;;;7.30;77.00;96353.38;5029904;28;20493;-78
2023/01/16 13:03:25;;;;;;;1.50;0.60;;;;;;;7.33;77.31;96344.41;5030199;28;20312;-78
2023/01/16 13:05:55;;;;;;;0.75;0.52;;;;;;;7.41;78.88;96342.66;5029887;28;20097;-77
2023/01/16 13:08:35;;;;;;;0.38;0.35;;;;;;;7.50;77.97;96334.88;5030139;28;20140;-79